Flight Track Log - Related Links

Times and Time Zones

All times are in EDT time to prevent confusion due to time zone crossing. See the DAL1245 flight status page for this flight to view local times or setup timezone preferences in your user account.

Time Position Orientation Groundspeed Altitude Reporting Facility
EDT Latitude Longitude Course Direction KTS MPH feet Rate Location/Type
Sat 11:49:15 AM 32.9004 -80.0688 268° West  Level FlightAware Approximate
Sat 11:50:15 AM 32.9333 -80.1714 242° Southwest  Level FlightAware Approximate
Sat 11:51:22 AM 32.8947 -80.2578 286° West 270 311 7,300  Level Jacksonville Center
Sat 11:52:22 AM 32.9153 -80.3439 267° West 270 311 10,000 1,950 Climbing Jacksonville Center
Sat 11:53:22 AM 32.9111 -80.4478 261° West 294 338 11,200 1,950 Climbing Jacksonville Center
Sat 11:54:22 AM 32.8947 -80.5694 261° West 335 386 13,900 2,950 Climbing Jacksonville Center
Sat 11:55:22 AM 32.8781 -80.6936 260° West 370 426 17,100 2,950 Climbing Jacksonville Center
Sat 11:56:22 AM 32.8594 -80.8250 261° West 390 449 19,800 2,400 Climbing Jacksonville Center
Sat 11:57:22 AM 32.8444 -80.9342 260° West 409 471 21,900 1,100 Climbing Jacksonville Center
Sat 11:58:22 AM 32.8236 -81.0806 261° West 414 476 22,000 50 Climbing Jacksonville Center
Sat 11:59:22 AM 32.8067 -81.2144 259° West 419 482 22,000  Level Jacksonville Center
Sat 12:01:16 PM 32.7636 -81.4847 261° West 419 482 22,000  Level Atlanta Center
Sat 12:02:16 PM 32.7456 -81.6161 259° West 414 476 22,000  Level Atlanta Center
Sat 12:03:16 PM 32.7250 -81.7400 261° West 402 463 22,000  Level Atlanta Center
Sat 12:04:16 PM 32.7103 -81.8467 260° West 382 440 22,000  Level Atlanta Center
Sat 12:05:16 PM 32.6914 -81.9681 261° West 382 440 22,000  Level Atlanta Center
Sat 12:06:16 PM 32.6747 -82.0919 259° West 382 440 22,000  Level Atlanta Center
Sat 12:07:16 PM 32.6556 -82.2131 260° West 382 440 22,000  Level Atlanta Center
Sat 12:08:16 PM 32.6364 -82.3369 261° West 377 434 22,000  Level Atlanta Center
Sat 12:09:16 PM 32.6194 -82.4581 291° West 377 434 22,000  Level Atlanta Center
Sat 12:10:16 PM 32.6564 -82.5733 298° West 365 420 22,000  Level Atlanta Center
Sat 12:11:16 PM 32.7056 -82.6836 298° West 367 422 22,000  Level Atlanta Center
Sat 12:12:16 PM 32.7547 -82.7939 298° West 373 429 22,000 -300 Level Atlanta Center
Sat 12:13:16 PM 32.8058 -82.9069 299° West 383 441 21,400 -800 Descending Atlanta Center
Sat 12:14:16 PM 32.8569 -83.0150 298° West 383 441 20,400 -700 Descending Atlanta Center
Sat 12:15:16 PM 32.9058 -83.1233 298° West 388 447 20,000 -200 Descending Atlanta Center
Sat 12:16:16 PM 32.9525 -83.2269 299° West 374 430 20,000  Level Atlanta Center
Sat 12:17:16 PM 32.9989 -83.3256 298° West 357 411 20,000 -650 Level Atlanta Center
Sat 12:18:16 PM 33.0411 -83.4192 299° West 340 391 18,700 -1,400 Descending Atlanta Center
Sat 12:19:16 PM 33.0875 -83.5206 297° West 330 380 17,200 -1,600 Descending Atlanta Center
Sat 12:20:16 PM 33.1278 -83.6147 299° West 317 365 15,500 -1,650 Descending Atlanta Center
Sat 12:21:16 PM 33.1675 -83.7014 299° West 304 350 13,900 -1,600 Descending Atlanta Center
Sat 12:22:16 PM 33.2075 -83.7881 319° Northwest 304 350 12,300 -1,533 Descending Atlanta Center
Sat 12:23:33 PM 33.2833 -83.8667 342° North 300 345 10,400 -1,445 Descending Atlanta TRACON
Sat 12:24:33 PM 33.3667 -83.9000 342° North 287 330 9,000 -1,340 Descending Atlanta TRACON
Sat 12:25:16 PM 33.4164 -83.9194 344° North 287 330 8,100 -583 Descending Atlanta Center
Sat 12:26:16 PM 33.4936 -83.9467 340° North 282 325 8,000 -550 Descending Atlanta Center
Sat 12:27:16 PM 33.5667 -83.9789 314° West 282 325 7,000 -550 Descending Atlanta Center
Sat 12:28:16 PM 33.6169 -84.0414 277° West 264 304 6,900 -723 Descending Atlanta Center
Sat 12:30:27 PM 33.6333 -84.2000 270° West 222 255 4,700 -1,127 Descending Atlanta TRACON
Sat 12:31:33 PM 33.6333 -84.2833 270° West 210 242 3,200 -1,200 Descending Atlanta TRACON
Sat 12:32:27 PM 33.6333 -84.3333 270° West 195 224 2,300 -900 Descending Atlanta TRACON
Sat 12:33:33 PM 33.6333 -84.4000 270° West 143 165 1,400 -818 Descending Atlanta TRACON

Login

Don't have an account? Register now (free) for customized features, flight alerts, and more!